map of SVP home
SVP - Airport
Location
City:  Kuito, Bié, Angola
Name:Silva Porto
ICAO:FNKU
IATA:SVP

Details
Type:Airport (Aerodrome, Airfield)
Latitude:12°24'17"S (-12.404632)
Longitude:16°56'51"E (16.947414)
Datum:other
Elevation:5618 ft (1712 m)
Variation:3.80°W (WMM2015 magnetic declination)
0.16° annual change
Runways:1
Longest:8202 × 98 ft (2500 × 30 m), paved

Time
Time Zone:UTC+1
Local Time:

Weather
METAR:FNKU 150800Z 19010KT 9999 FEW015 SCT070 22/17 Q1022

Related Locations
Nearby:
Farthest:PLPA: 11977 mi / 19275 km
Palmyra Island Atoll [Palmyra Airport (Cooper)], UM

Find:

   beyond  
but within

Other Information
Maps:
NOTAMs:
Links:
Sources:

  
  • flag of Angola
  

Sectional Chart

Flight Planning
at skyvector.com

Satellite Image

Google Maps Satellite view

 

Copyright © 2004-2018 Karl L. Swartz. All rights reserved.
The Great Circle Mapper name and logo are trademarks of the Great Circle Mapper.
All other trademarks mentioned herein belong to their respective owners.
Please see credits for attibutions and further copyright information.

  Follow gcmap on Facebook Follow gcmap on Twitter Follow gcmap on Google+ GCmap on LinkedIn

hCard Microformat

Geo Microformat